Terminal Aerodrome Forecast
Issued by NWS

Home | Current Version | Previous Version | Text Only | Print | Product List | Glossary On
Versions: 1 2 3 4 5 6 7 8 9 10 11 12 13 14 15 16 17 18
753
FTUS45 KTFX 270019 CCB
TAFHLN
TAF COR
KHLN 270019Z 2700/2724 33007KT 4SM -SN SCT015 OVC025
      TEMPO 2700/2704 1SM -SN BR BKN012
     FM271000 32010KT P6SM VCSH SCT030 OVC050 PROB30 2710/2716 3SM
      -SN OVC025
     FM271800 VRB05KT P6SM SCT035 BKN060=

USA.gov is the U.S. government's official web portal to all federal, state and local government web resources and services.